< < Back
Terminal Aerodrome Forecast


Current Version              Previous Versions:   1  2  3  4  5  6  7  8  9  

Terminal Aerodrome Forecast

652
FTUS42 KGSP 221125
TAFCLT
TAF
KCLT 221125Z 2212/2312 06003KT P6SM FEW250
     FM221400 16004KT P6SM FEW200
     FM230600 12003KT P6SM BKN050
     FM231000 06006KT P6SM BKN021 OVC035=

Latest METAR

182
SAUS70 KWBC 221400 RRB
MTRCLT
METAR KCLT 221352Z 00000KT 10SM FEW250 03/M07 A3057 RMK AO2 SLP354
T00331072


USA.gov is the U.S. government's official web portal to all federal, state and local government web resources and services.